createdAt,value
2023-03-31T00:07:11.775Z,12.6
2023-03-31T00:35:36.043Z,12.93
2023-03-31T01:04:03.562Z,12.17
2023-03-31T01:32:37.003Z,11.92
2023-03-31T02:01:17.066Z,11.63
2023-03-31T02:29:51.212Z,11.71
2023-03-31T02:58:23.268Z,11.5
2023-03-31T03:26:58.937Z,11.91
2023-03-31T03:55:33.693Z,12.45
2023-03-31T04:24:12.855Z,11.9
2023-03-31T04:52:50.250Z,11.61
2023-03-31T05:21:36.573Z,11.49
2023-03-31T05:49:56.789Z,11.43
2023-03-31T06:18:31.690Z,11.08
2023-03-31T06:47:02.876Z,11.1
2023-03-31T07:15:52.581Z,12.18
2023-03-31T07:44:35.249Z,13.88
2023-03-31T08:13:19.168Z,13.66
2023-03-31T08:42:00.480Z,13.74
2023-03-31T09:10:40.980Z,14.21
2023-03-31T09:39:29.311Z,15.48
2023-03-31T10:08:24.154Z,14.97
2023-03-31T10:36:54.702Z,10.61
2023-03-31T11:05:14.816Z,10.34
2023-03-31T11:33:57.618Z,11.47
2023-03-31T12:02:48.267Z,13.08
2023-03-31T12:31:11.505Z,12.94
2023-03-31T12:59:41.368Z,10.32
2023-03-31T13:28:17.056Z,12.26
2023-03-31T13:56:43.250Z,13.93
2023-03-31T14:25:14.283Z,13.54
2023-03-31T14:53:36.564Z,13.38
2023-03-31T15:22:09.061Z,13.49
2023-03-31T15:50:20.465Z,10.73
2023-03-31T16:18:45.506Z,11.87
2023-03-31T16:47:31.780Z,11.67
2023-03-31T17:15:31.638Z,11.59
2023-03-31T17:43:59.839Z,11.8
2023-03-31T18:12:19.328Z,11.39
2023-03-31T18:40:43.041Z,11.63
2023-03-31T19:09:15.390Z,11.36
2023-03-31T19:37:45.320Z,10.69
2023-03-31T20:06:09.261Z,10.68
2023-03-31T20:34:38.696Z,10.14
2023-03-31T21:03:04.311Z,10.28
2023-03-31T21:31:33.137Z,10.16
2023-03-31T21:59:59.788Z,9.9
2023-03-31T22:28:22.624Z,10.13
2023-03-31T22:56:55.909Z,10.06
2023-03-31T23:25:15.681Z,10.06
2023-03-31T23:53:38.246Z,9.84
